Albany, Oklahoma
Current Conditions -  °F | °C
As of 4:15 PM on Monday 20 Oct 2014 (Local Time) from KDUA Reporting Station
Clear Clear  
Wind Chill: 82°   Ceiling: Unl
Heat Index: 83°   Visibility: 10mi
Dew Point: 63°   Wind: 0mph
Humidity: 51%   Direction: NA
Pressure: 30.02"   Gusts: NA
Location:  33.88°N, 96.16°W
Report Text: KDUA 202115Z AUTO 00000KT 10SM CLR 28/17 A3002 RMK AO2
Loading
Personal Weather Stations






























Interactive Weather Map New forecast layout! Learn more

10-Day Weather Forecast

Advertisements
Track Severe Weather on mobile